KSLC/SLC METAR and TAF weather

Enter ICAO airport designator
Station Type Date Time Source
KSLC METAR 2021/06/24 05:54 UTC NOAA

KSLC 240554Z 16017G27KT 10SM BKN140 BKN200 28/07 A2996 RMK AO2 PK WND 15028/0521 SLP078 VIRGA T02830067 10339 20283 51014


Station Type Date Time Source
KSLC Decoded METAR 2021/06/24 05:54 UTC NOAA

SALT LAKE CITY INTERNATIONAL AIRPORT , UT, United States (KSLC) 40-47N 111-58W 1286M
Jun 24, 2021 - 01:54 AM EDT / 2021.06.24 0554 UTC
Wind: from the SSE (160 degrees) at 20 MPH (17 KT) gusting to 31 MPH (27 KT):0
Visibility: 10 mile(s):0
Sky conditions: mostly cloudy
Temperature: 82.9 F (28.3 C)
Dew Point: 44.1 F (6.7 C)
Relative Humidity: 25%
Pressure (altimeter): 29.96 in. Hg (1014 hPa)
Pressure tendency: 0.04 inches (1.4 hPa) higher than three hours ago
ob: KSLC 240554Z 16017G27KT 10SM BKN140 BKN200 28/07 A2996 RMK AO2 PK WND 15028/0521 SLP078 VIRGA T02830067 10339 20283 51014
cycle: 6

Station Type Date Time Source
KSLC TAF 2021/06/24 06:42 UTC NOAA

TAF KSLC 240539Z 2406/2512 18008KT P6SM SCT120 BKN200
TEMPO 2406/2408 16016G26KT
FM241300 17010KT P6SM VCSH SCT070 OVC120
FM241600 18015G25KT P6SM SCT060 BKN120
FM241900 19012KT P6SM VCTS SCT060CB OVC200
FM242100 19010KT P6SM FEW060 SCT150

Example: see airport list